sensor_id;sensor_type;location;lat;lon;timestamp;temperature;humidity
56428;DHT22;42331;53.578;9.760;2022-07-06T13:11:14;18.50;99.90
56428;DHT22;42331;53.578;9.760;2022-07-06T13:13:44;18.70;99.90
56428;DHT22;42331;53.578;9.760;2022-07-06T13:16:15;18.80;99.90
56428;DHT22;42331;53.578;9.760;2022-07-06T13:18:46;18.60;99.90
56428;DHT22;42331;53.578;9.760;2022-07-06T13:21:16;18.40;99.90
56428;DHT22;42331;53.578;9.760;2022-07-06T13:23:47;18.30;99.90
56428;DHT22;42331;53.578;9.760;2022-07-06T13:26:18;18.40;99.90
56428;DHT22;42331;53.578;9.760;2022-07-06T13:28:48;18.40;99.90
56428;DHT22;42331;53.578;9.760;2022-07-06T13:31:19;18.40;99.90
56428;DHT22;42331;53.578;9.760;2022-07-06T13:33:50;18.60;99.90
56428;DHT22;42331;53.578;9.760;2022-07-06T13:36:20;18.80;99.90
56428;DHT22;42331;53.578;9.760;2022-07-06T13:38:51;18.80;99.90
56428;DHT22;42331;53.578;9.760;2022-07-06T13:41:21;18.60;99.90
56428;DHT22;42331;53.578;9.760;2022-07-06T13:43:52;18.60;99.90
56428;DHT22;42331;53.578;9.760;2022-07-06T13:46:23;18.60;99.90
56428;DHT22;42331;53.578;9.760;2022-07-06T13:48:54;18.70;99.90
56428;DHT22;42331;53.578;9.760;2022-07-06T13:51:25;18.50;99.90
56428;DHT22;42331;53.578;9.760;2022-07-06T13:53:57;18.50;99.90
56428;DHT22;42331;53.578;9.760;2022-07-06T13:56:28;18.60;99.90
56428;DHT22;42331;53.578;9.760;2022-07-06T13:59:02;18.70;99.90
56428;DHT22;42331;53.578;9.760;2022-07-06T14:01:32;18.70;99.90
56428;DHT22;42331;53.578;9.760;2022-07-06T14:04:03;18.70;99.90
56428;DHT22;42331;53.578;9.760;2022-07-06T14:06:34;18.60;99.90
56428;DHT22;42331;53.578;9.760;2022-07-06T14:09:04;18.60;99.90
56428;DHT22;42331;53.578;9.760;2022-07-06T14:11:35;18.70;99.90
56428;DHT22;42331;53.578;9.760;2022-07-06T14:14:06;18.90;99.90
56428;DHT22;42331;53.578;9.760;2022-07-06T14:16:37;18.90;99.90
56428;DHT22;42331;53.578;9.760;2022-07-06T14:19:10;18.80;99.90
56428;DHT22;42331;53.578;9.760;2022-07-06T14:21:41;18.60;99.90
56428;DHT22;42331;53.578;9.760;2022-07-06T14:24:11;18.30;99.90
56428;DHT22;42331;53.578;9.760;2022-07-06T14:26:42;18.20;99.90
56428;DHT22;42331;53.578;9.760;2022-07-06T14:29:13;18.20;99.90
56428;DHT22;42331;53.578;9.760;2022-07-06T14:31:44;18.20;99.90
56428;DHT22;42331;53.578;9.760;2022-07-06T14:34:14;18.30;99.90
56428;DHT22;42331;53.578;9.760;2022-07-06T14:36:45;18.40;99.90
56428;DHT22;42331;53.578;9.760;2022-07-06T14:39:15;18.60;99.90
56428;DHT22;42331;53.578;9.760;2022-07-06T14:41:46;18.70;99.90
56428;DHT22;42331;53.578;9.760;2022-07-06T14:44:16;18.80;99.90
56428;DHT22;42331;53.578;9.760;2022-07-06T14:46:47;18.80;99.90
56428;DHT22;42331;53.578;9.760;2022-07-06T14:49:18;18.70;99.90
56428;DHT22;42331;53.578;9.760;2022-07-06T14:51:48;18.50;99.90
56428;DHT22;42331;53.578;9.760;2022-07-06T14:54:19;18.70;99.90
56428;DHT22;42331;53.578;9.760;2022-07-06T14:56:50;18.80;99.90
56428;DHT22;42331;53.578;9.760;2022-07-06T14:59:20;18.90;99.90
56428;DHT22;42331;53.578;9.760;2022-07-06T15:01:51;18.90;99.90
56428;DHT22;42331;53.578;9.760;2022-07-06T15:04:22;18.80;99.90
56428;DHT22;42331;53.578;9.760;2022-07-06T15:06:53;18.40;99.90
56428;DHT22;42331;53.578;9.760;2022-07-06T15:09:23;18.30;99.90
56428;DHT22;42331;53.578;9.760;2022-07-06T15:11:54;18.20;99.90
56428;DHT22;42331;53.578;9.760;2022-07-06T15:14:25;18.10;99.90
56428;DHT22;42331;53.578;9.760;2022-07-06T15:16:56;18.10;99.90
56428;DHT22;42331;53.578;9.760;2022-07-06T15:19:26;18.10;99.90
56428;DHT22;42331;53.578;9.760;2022-07-06T15:21:57;18.10;99.90
56428;DHT22;42331;53.578;9.760;2022-07-06T15:24:28;18.10;99.90
56428;DHT22;42331;53.578;9.760;2022-07-06T15:26:59;18.20;99.90
56428;DHT22;42331;53.578;9.760;2022-07-06T15:29:29;18.20;99.90
56428;DHT22;42331;53.578;9.760;2022-07-06T15:32:00;18.30;99.90
56428;DHT22;42331;53.578;9.760;2022-07-06T15:34:31;18.40;99.90
56428;DHT22;42331;53.578;9.760;2022-07-06T15:37:02;18.50;99.90
56428;DHT22;42331;53.578;9.760;2022-07-06T15:39:33;18.60;99.90
56428;DHT22;42331;53.578;9.760;2022-07-06T15:42:04;18.90;99.90
56428;DHT22;42331;53.578;9.760;2022-07-06T15:44:35;18.90;99.90
56428;DHT22;42331;53.578;9.760;2022-07-06T15:47:06;19.00;99.90
56428;DHT22;42331;53.578;9.760;2022-07-06T15:49:39;19.10;99.90
56428;DHT22;42331;53.578;9.760;2022-07-06T15:52:09;18.90;99.90
56428;DHT22;42331;53.578;9.760;2022-07-06T15:54:40;18.90;99.90
56428;DHT22;42331;53.578;9.760;2022-07-06T15:57:14;18.80;99.90
56428;DHT22;42331;53.578;9.760;2022-07-06T15:59:48;18.80;99.90
56428;DHT22;42331;53.578;9.760;2022-07-06T16:02:18;18.90;99.90
56428;DHT22;42331;53.578;9.760;2022-07-06T16:04:49;18.80;99.90
56428;DHT22;42331;53.578;9.760;2022-07-06T16:07:20;18.80;99.90
56428;DHT22;42331;53.578;9.760;2022-07-06T16:09:50;18.80;99.90
56428;DHT22;42331;53.578;9.760;2022-07-06T16:12:21;18.70;99.90
56428;DHT22;42331;53.578;9.760;2022-07-06T16:14:52;18.70;99.90
56428;DHT22;42331;53.578;9.760;2022-07-06T16:17:22;18.80;99.90
56428;DHT22;42331;53.578;9.760;2022-07-06T16:19:53;18.70;99.90
56428;DHT22;42331;53.578;9.760;2022-07-06T16:22:40;18.80;99.90
56428;DHT22;42331;53.578;9.760;2022-07-06T16:25:11;18.80;99.90
56428;DHT22;42331;53.578;9.760;2022-07-06T16:27:45;18.90;99.90
56428;DHT22;42331;53.578;9.760;2022-07-06T16:30:15;18.80;99.90
56428;DHT22;42331;53.578;9.760;2022-07-06T16:32:46;18.70;99.90
56428;DHT22;42331;53.578;9.760;2022-07-06T16:38:17;18.60;99.90
56428;DHT22;42331;53.578;9.760;2022-07-06T16:40:48;18.60;99.90
56428;DHT22;42331;53.578;9.760;2022-07-06T16:43:18;18.50;99.90
56428;DHT22;42331;53.578;9.760;2022-07-06T16:45:55;18.50;99.90
56428;DHT22;42331;53.578;9.760;2022-07-06T16:48:29;18.40;99.90
56428;DHT22;42331;53.578;9.760;2022-07-06T16:51:00;18.40;99.90
56428;DHT22;42331;53.578;9.760;2022-07-06T16:53:32;18.40;99.90
56428;DHT22;42331;53.578;9.760;2022-07-06T16:56:03;18.30;99.90
56428;DHT22;42331;53.578;9.760;2022-07-06T16:58:34;18.30;99.90
56428;DHT22;42331;53.578;9.760;2022-07-06T17:01:04;18.20;99.90
56428;DHT22;42331;53.578;9.760;2022-07-06T17:03:35;18.20;99.90
56428;DHT22;42331;53.578;9.760;2022-07-06T17:06:06;18.20;99.90
56428;DHT22;42331;53.578;9.760;2022-07-06T17:08:37;18.20;99.90
56428;DHT22;42331;53.578;9.760;2022-07-06T17:11:08;18.20;99.90
56428;DHT22;42331;53.578;9.760;2022-07-06T17:13:38;18.30;99.90
56428;DHT22;42331;53.578;9.760;2022-07-06T17:16:09;18.30;99.90
56428;DHT22;42331;53.578;9.760;2022-07-06T17:18:40;18.40;99.90
56428;DHT22;42331;53.578;9.760;2022-07-06T17:21:10;18.30;99.90
56428;DHT22;42331;53.578;9.760;2022-07-06T17:23:41;18.30;99.90
56428;DHT22;42331;53.578;9.760;2022-07-06T17:26:11;18.30;99.90
56428;DHT22;42331;53.578;9.760;2022-07-06T17:28:42;18.30;99.90
56428;DHT22;42331;53.578;9.760;2022-07-06T17:31:13;18.20;99.90
56428;DHT22;42331;53.578;9.760;2022-07-06T17:33:43;18.10;99.90
56428;DHT22;42331;53.578;9.760;2022-07-06T17:36:14;18.00;99.90
56428;DHT22;42331;53.578;9.760;2022-07-06T17:38:48;18.00;99.90
56428;DHT22;42331;53.578;9.760;2022-07-06T17:41:18;17.90;99.90
56428;DHT22;42331;53.578;9.760;2022-07-06T17:43:49;17.90;99.90
56428;DHT22;42331;53.578;9.760;2022-07-06T17:46:20;17.80;99.90
56428;DHT22;42331;53.578;9.760;2022-07-06T17:48:50;17.80;99.90
56428;DHT22;42331;53.578;9.760;2022-07-06T17:51:23;17.80;99.90
56428;DHT22;42331;53.578;9.760;2022-07-06T17:53:54;17.70;99.90
56428;DHT22;42331;53.578;9.760;2022-07-06T17:56:24;17.70;99.90
56428;DHT22;42331;53.578;9.760;2022-07-06T17:58:57;17.70;99.90
56428;DHT22;42331;53.578;9.760;2022-07-06T18:01:29;17.70;99.90
56428;DHT22;42331;53.578;9.760;2022-07-06T18:04:00;17.70;99.90
56428;DHT22;42331;53.578;9.760;2022-07-06T18:06:31;17.70;99.90
56428;DHT22;42331;53.578;9.760;2022-07-06T18:09:02;17.70;99.90
56428;DHT22;42331;53.578;9.760;2022-07-06T18:11:32;17.70;99.90
56428;DHT22;42331;53.578;9.760;2022-07-06T18:14:03;17.60;99.90
56428;DHT22;42331;53.578;9.760;2022-07-06T18:16:34;17.60;99.90
56428;DHT22;42331;53.578;9.760;2022-07-06T18:19:05;17.60;99.90
56428;DHT22;42331;53.578;9.760;2022-07-06T18:21:36;17.60;99.90
56428;DHT22;42331;53.578;9.760;2022-07-06T18:24:06;17.60;99.90
56428;DHT22;42331;53.578;9.760;2022-07-06T18:26:38;17.60;99.90
56428;DHT22;42331;53.578;9.760;2022-07-06T18:29:09;17.60;99.90
56428;DHT22;42331;53.578;9.760;2022-07-06T18:31:40;17.60;99.90
56428;DHT22;42331;53.578;9.760;2022-07-06T18:34:11;17.50;99.90
56428;DHT22;42331;53.578;9.760;2022-07-06T18:36:41;17.50;99.90
56428;DHT22;42331;53.578;9.760;2022-07-06T18:39:12;17.50;99.90
56428;DHT22;42331;53.578;9.760;2022-07-06T18:41:43;17.50;99.90
56428;DHT22;42331;53.578;9.760;2022-07-06T18:44:13;17.40;99.90
56428;DHT22;42331;53.578;9.760;2022-07-06T18:46:44;17.40;99.90
56428;DHT22;42331;53.578;9.760;2022-07-06T18:49:16;17.40;99.90
56428;DHT22;42331;53.578;9.760;2022-07-06T18:51:50;17.40;99.90
56428;DHT22;42331;53.578;9.760;2022-07-06T18:54:21;17.40;99.90
56428;DHT22;42331;53.578;9.760;2022-07-06T18:56:51;17.40;99.90
56428;DHT22;42331;53.578;9.760;2022-07-06T18:59:22;17.30;99.90
56428;DHT22;42331;53.578;9.760;2022-07-06T19:01:52;17.30;99.90
56428;DHT22;42331;53.578;9.760;2022-07-06T19:04:23;17.30;99.90
56428;DHT22;42331;53.578;9.760;2022-07-06T19:06:54;17.20;99.90
56428;DHT22;42331;53.578;9.760;2022-07-06T19:09:25;17.20;99.90
56428;DHT22;42331;53.578;9.760;2022-07-06T19:11:55;17.10;99.90
56428;DHT22;42331;53.578;9.760;2022-07-06T19:14:26;17.10;99.90
56428;DHT22;42331;53.578;9.760;2022-07-06T19:16:57;17.10;99.90
56428;DHT22;42331;53.578;9.760;2022-07-06T19:19:28;17.00;99.90
56428;DHT22;42331;53.578;9.760;2022-07-06T19:21:58;17.10;99.90
56428;DHT22;42331;53.578;9.760;2022-07-06T19:24:29;17.00;99.90
56428;DHT22;42331;53.578;9.760;2022-07-06T19:27:00;16.90;99.90
56428;DHT22;42331;53.578;9.760;2022-07-06T19:29:30;16.70;99.90
56428;DHT22;42331;53.578;9.760;2022-07-06T19:32:01;16.40;99.90
56428;DHT22;42331;53.578;9.760;2022-07-06T19:34:32;16.20;99.90
56428;DHT22;42331;53.578;9.760;2022-07-06T19:37:06;15.90;99.90
56428;DHT22;42331;53.578;9.760;2022-07-06T19:39:37;15.80;99.90
56428;DHT22;42331;53.578;9.760;2022-07-06T19:42:08;15.60;99.90
56428;DHT22;42331;53.578;9.760;2022-07-06T19:44:39;15.50;99.90
56428;DHT22;42331;53.578;9.760;2022-07-06T19:47:10;15.30;99.90
56428;DHT22;42331;53.578;9.760;2022-07-06T19:49:41;15.20;99.90
56428;DHT22;42331;53.578;9.760;2022-07-06T19:52:11;15.00;99.90
56428;DHT22;42331;53.578;9.760;2022-07-06T19:54:42;15.00;99.90
56428;DHT22;42331;53.578;9.760;2022-07-06T19:57:13;14.90;99.90
56428;DHT22;42331;53.578;9.760;2022-07-06T19:59:43;14.90;99.90
56428;DHT22;42331;53.578;9.760;2022-07-06T20:02:14;14.80;99.90
56428;DHT22;42331;53.578;9.760;2022-07-06T20:04:45;14.90;99.90
56428;DHT22;42331;53.578;9.760;2022-07-06T20:07:16;14.80;99.90
56428;DHT22;42331;53.578;9.760;2022-07-06T20:09:47;14.80;99.90
56428;DHT22;42331;53.578;9.760;2022-07-06T20:12:18;14.80;99.90
56428;DHT22;42331;53.578;9.760;2022-07-06T20:14:49;14.70;99.90
56428;DHT22;42331;53.578;9.760;2022-07-06T20:17:20;14.60;99.90
56428;DHT22;42331;53.578;9.760;2022-07-06T20:19:50;14.60;99.90
56428;DHT22;42331;53.578;9.760;2022-07-06T20:22:21;14.60;99.90
56428;DHT22;42331;53.578;9.760;2022-07-06T20:24:52;14.50;99.90
56428;DHT22;42331;53.578;9.760;2022-07-06T20:27:23;14.40;99.90
56428;DHT22;42331;53.578;9.760;2022-07-06T20:29:59;14.50;99.90
56428;DHT22;42331;53.578;9.760;2022-07-06T20:32:33;14.40;99.90
56428;DHT22;42331;53.578;9.760;2022-07-06T20:35:06;14.40;99.90
56428;DHT22;42331;53.578;9.760;2022-07-06T20:37:37;14.40;99.90
56428;DHT22;42331;53.578;9.760;2022-07-06T20:40:24;14.30;99.90
56428;DHT22;42331;53.578;9.760;2022-07-06T20:43:53;14.30;99.90
56428;DHT22;42331;53.578;9.760;2022-07-06T20:46:42;14.30;99.90
56428;DHT22;42331;53.578;9.760;2022-07-06T20:49:25;14.30;99.90
56428;DHT22;42331;53.578;9.760;2022-07-06T20:52:03;14.30;99.90
56428;DHT22;42331;53.578;9.760;2022-07-06T20:54:33;14.30;99.90
56428;DHT22;42331;53.578;9.760;2022-07-06T20:57:04;14.30;99.90
56428;DHT22;42331;53.578;9.760;2022-07-06T20:59:35;14.30;99.90
56428;DHT22;42331;53.578;9.760;2022-07-06T21:02:09;14.30;99.90
56428;DHT22;42331;53.578;9.760;2022-07-06T21:04:40;14.30;99.90
56428;DHT22;42331;53.578;9.760;2022-07-06T21:07:10;14.30;99.90
56428;DHT22;42331;53.578;9.760;2022-07-06T21:09:47;14.40;99.90
56428;DHT22;42331;53.578;9.760;2022-07-06T21:12:18;14.30;99.90
56428;DHT22;42331;53.578;9.760;2022-07-06T21:14:48;14.30;99.90
56428;DHT22;42331;53.578;9.760;2022-07-06T21:17:20;14.40;99.90
56428;DHT22;42331;53.578;9.760;2022-07-06T21:19:50;14.40;99.90
56428;DHT22;42331;53.578;9.760;2022-07-06T21:22:21;14.40;99.90
56428;DHT22;42331;53.578;9.760;2022-07-06T21:24:52;14.40;99.90
56428;DHT22;42331;53.578;9.760;2022-07-06T21:27:22;14.40;99.90
56428;DHT22;42331;53.578;9.760;2022-07-06T21:29:53;14.40;99.90
56428;DHT22;42331;53.578;9.760;2022-07-06T21:32:23;14.40;99.90
56428;DHT22;42331;53.578;9.760;2022-07-06T21:34:54;14.40;99.90
56428;DHT22;42331;53.578;9.760;2022-07-06T21:37:24;14.40;99.90
56428;DHT22;42331;53.578;9.760;2022-07-06T21:39:57;14.40;99.90
56428;DHT22;42331;53.578;9.760;2022-07-06T21:42:27;14.40;99.90
56428;DHT22;42331;53.578;9.760;2022-07-06T21:44:58;14.40;99.90
56428;DHT22;42331;53.578;9.760;2022-07-06T21:47:28;14.40;99.90
56428;DHT22;42331;53.578;9.760;2022-07-06T21:49:59;14.40;99.90
56428;DHT22;42331;53.578;9.760;2022-07-06T21:52:30;14.40;99.90
56428;DHT22;42331;53.578;9.760;2022-07-06T21:55:00;14.40;99.90
56428;DHT22;42331;53.578;9.760;2022-07-06T21:57:31;14.40;99.90
56428;DHT22;42331;53.578;9.760;2022-07-06T22:00:03;14.30;99.90
56428;DHT22;42331;53.578;9.760;2022-07-06T22:02:35;14.30;99.90
56428;DHT22;42331;53.578;9.760;2022-07-06T22:05:06;14.30;99.90
56428;DHT22;42331;53.578;9.760;2022-07-06T22:07:37;14.30;99.90
56428;DHT22;42331;53.578;9.760;2022-07-06T22:10:07;14.20;99.90
56428;DHT22;42331;53.578;9.760;2022-07-06T22:12:39;14.30;99.90
56428;DHT22;42331;53.578;9.760;2022-07-06T22:15:09;14.20;99.90
56428;DHT22;42331;53.578;9.760;2022-07-06T22:17:40;14.30;99.90
56428;DHT22;42331;53.578;9.760;2022-07-06T22:20:10;14.30;99.90
56428;DHT22;42331;53.578;9.760;2022-07-06T22:22:41;14.30;99.90
56428;DHT22;42331;53.578;9.760;2022-07-06T22:25:12;14.30;99.90
56428;DHT22;42331;53.578;9.760;2022-07-06T22:27:42;14.30;99.90
56428;DHT22;42331;53.578;9.760;2022-07-06T22:30:13;14.30;99.90
56428;DHT22;42331;53.578;9.760;2022-07-06T22:32:43;14.30;99.90
56428;DHT22;42331;53.578;9.760;2022-07-06T22:35:14;14.30;99.90
56428;DHT22;42331;53.578;9.760;2022-07-06T22:37:45;14.30;99.90
56428;DHT22;42331;53.578;9.760;2022-07-06T22:40:15;14.30;99.90
56428;DHT22;42331;53.578;9.760;2022-07-06T22:43:05;14.30;99.90
56428;DHT22;42331;53.578;9.760;2022-07-06T22:45:36;14.20;99.90
56428;DHT22;42331;53.578;9.760;2022-07-06T22:48:07;14.20;99.90
56428;DHT22;42331;53.578;9.760;2022-07-06T22:50:37;14.20;99.90
56428;DHT22;42331;53.578;9.760;2022-07-06T22:53:08;14.20;99.90
56428;DHT22;42331;53.578;9.760;2022-07-06T22:55:39;14.20;99.90
56428;DHT22;42331;53.578;9.760;2022-07-06T22:58:10;14.20;99.90
56428;DHT22;42331;53.578;9.760;2022-07-06T23:00:41;14.20;99.90
56428;DHT22;42331;53.578;9.760;2022-07-06T23:03:12;14.20;99.90
56428;DHT22;42331;53.578;9.760;2022-07-06T23:05:42;14.20;99.90
56428;DHT22;42331;53.578;9.760;2022-07-06T23:08:13;14.20;99.90
56428;DHT22;42331;53.578;9.760;2022-07-06T23:10:44;14.20;99.90
56428;DHT22;42331;53.578;9.760;2022-07-06T23:13:15;14.20;99.90
56428;DHT22;42331;53.578;9.760;2022-07-06T23:15:46;14.30;99.90
56428;DHT22;42331;53.578;9.760;2022-07-06T23:18:17;14.20;99.90
56428;DHT22;42331;53.578;9.760;2022-07-06T23:20:48;14.20;99.90
56428;DHT22;42331;53.578;9.760;2022-07-06T23:23:18;14.30;99.90
56428;DHT22;42331;53.578;9.760;2022-07-06T23:25:49;14.30;99.90
56428;DHT22;42331;53.578;9.760;2022-07-06T23:28:19;14.30;99.90
56428;DHT22;42331;53.578;9.760;2022-07-06T23:30:50;14.30;99.90
56428;DHT22;42331;53.578;9.760;2022-07-06T23:33:21;14.40;99.90
56428;DHT22;42331;53.578;9.760;2022-07-06T23:35:52;14.40;99.90
56428;DHT22;42331;53.578;9.760;2022-07-06T23:38:22;14.30;99.90
56428;DHT22;42331;53.578;9.760;2022-07-06T23:40:53;14.40;99.90
56428;DHT22;42331;53.578;9.760;2022-07-06T23:43:24;14.40;99.90
56428;DHT22;42331;53.578;9.760;2022-07-06T23:45:54;14.40;99.90
56428;DHT22;42331;53.578;9.760;2022-07-06T23:48:25;14.40;99.90
56428;DHT22;42331;53.578;9.760;2022-07-06T23:50:56;14.40;99.90
56428;DHT22;42331;53.578;9.760;2022-07-06T23:53:26;14.40;99.90
56428;DHT22;42331;53.578;9.760;2022-07-06T23:55:57;14.40;99.90
56428;DHT22;42331;53.578;9.760;2022-07-06T23:58:27;14.50;99.90
